sensor_id;sensor_type;location;lat;lon;timestamp;pressure;altitude;pressure_sealevel;temperature
74321;BMP280;62738;45.772;4.804;2022-09-09T00:01:27;-23677.66;;;20.54
74321;BMP280;62738;45.772;4.804;2022-09-09T00:07:19;-23672.06;;;20.42
74321;BMP280;62738;45.772;4.804;2022-09-09T00:13:23;-23684.19;;;20.67
74321;BMP280;62738;45.772;4.804;2022-09-09T00:16:19;-23677.16;;;20.53
74321;BMP280;62738;45.772;4.804;2022-09-09T00:19:30;-23686.38;;;20.72
74321;BMP280;62738;45.772;4.804;2022-09-09T00:22:23;-23670.13;;;20.39
74321;BMP280;62738;45.772;4.804;2022-09-09T00:25:14;-23661.16;;;20.20
74321;BMP280;62738;45.772;4.804;2022-09-09T00:28:13;-23664.78;;;20.28
74321;BMP280;62738;45.772;4.804;2022-09-09T00:31:12;-23662.84;;;20.24
74321;BMP280;62738;45.772;4.804;2022-09-09T00:34:11;-23657.03;;;20.12
74321;BMP280;62738;45.772;4.804;2022-09-09T00:36:59;-23674.97;;;20.48
74321;BMP280;62738;45.772;4.804;2022-09-09T00:39:47;-23675.94;;;20.50
74321;BMP280;62738;45.772;4.804;2022-09-09T00:42:40;-23664.31;;;20.27
74321;BMP280;62738;45.772;4.804;2022-09-09T00:48:52;-23661.41;;;20.21
74321;BMP280;62738;45.772;4.804;2022-09-09T00:57:45;-23669.16;;;20.37
74321;BMP280;62738;45.772;4.804;2022-09-09T01:03:34;-23658.25;;;20.14
74321;BMP280;62738;45.772;4.804;2022-09-09T01:06:34;-23650.72;;;19.99
74321;BMP280;62738;45.772;4.804;2022-09-09T01:09:25;-23651.22;;;20.00
74321;BMP280;62738;45.772;4.804;2022-09-09T01:12:25;-23649.75;;;19.97
74321;BMP280;62738;45.772;4.804;2022-09-09T01:15:33;-23639.09;;;19.75
74321;BMP280;62738;45.772;4.804;2022-09-09T01:18:23;-23636.66;;;19.70
74321;BMP280;62738;45.772;4.804;2022-09-09T01:24:31;-23625.00;;;19.46
74321;BMP280;62738;45.772;4.804;2022-09-09T01:27:23;-23633.25;;;19.63
74321;BMP280;62738;45.772;4.804;2022-09-09T01:30:13;-23643.69;;;19.84
74321;BMP280;62738;45.772;4.804;2022-09-09T01:33:00;-23639.09;;;19.75
74321;BMP280;62738;45.772;4.804;2022-09-09T01:35:53;-23641.00;;;19.79
74321;BMP280;62738;45.772;4.804;2022-09-09T01:38:42;-23618.22;;;19.32
74321;BMP280;62738;45.772;4.804;2022-09-09T01:41:29;-23624.53;;;19.45
74321;BMP280;62738;45.772;4.804;2022-09-09T01:44:18;-23626.72;;;19.50
74321;BMP280;62738;45.772;4.804;2022-09-09T01:47:06;-23625.97;;;19.48
74321;BMP280;62738;45.772;4.804;2022-09-09T01:49:53;-23616.75;;;19.29
74321;BMP280;62738;45.772;4.804;2022-09-09T01:52:40;-23610.94;;;19.17
74321;BMP280;62738;45.772;4.804;2022-09-09T01:55:39;-23623.56;;;19.43
74321;BMP280;62738;45.772;4.804;2022-09-09T02:02:30;-23625.00;;;19.46
74321;BMP280;62738;45.772;4.804;2022-09-09T02:05:37;-23623.78;;;19.44
74321;BMP280;62738;45.772;4.804;2022-09-09T02:08:28;-23606.81;;;19.09
74321;BMP280;62738;45.772;4.804;2022-09-09T02:11:23;-23622.59;;;19.41
74321;BMP280;62738;45.772;4.804;2022-09-09T02:14:15;-23616.50;;;19.29
74321;BMP280;62738;45.772;4.804;2022-09-09T02:17:09;-23611.91;;;19.19
74321;BMP280;62738;45.772;4.804;2022-09-09T02:20:05;-23612.88;;;19.21
74321;BMP280;62738;45.772;4.804;2022-09-09T02:22:55;-23622.34;;;19.41
74321;BMP280;62738;45.772;4.804;2022-09-09T02:25:43;-23619.19;;;19.34
74321;BMP280;62738;45.772;4.804;2022-09-09T02:28:32;-23604.63;;;19.04
74321;BMP280;62738;45.772;4.804;2022-09-09T02:31:22;-23599.78;;;18.94
74321;BMP280;62738;45.772;4.804;2022-09-09T02:34:12;-23599.78;;;18.94
74321;BMP280;62738;45.772;4.804;2022-09-09T02:37:01;-23610.69;;;19.17
74321;BMP280;62738;45.772;4.804;2022-09-09T02:39:50;-23603.19;;;19.01
74321;BMP280;62738;45.772;4.804;2022-09-09T02:42:41;-23603.41;;;19.02
74321;BMP280;62738;45.772;4.804;2022-09-09T02:45:43;-23621.59;;;19.39
74321;BMP280;62738;45.772;4.804;2022-09-09T02:49:06;-23607.06;;;19.09
74321;BMP280;62738;45.772;4.804;2022-09-09T02:54:38;-23592.50;;;18.79
74321;BMP280;62738;45.772;4.804;2022-09-09T02:57:28;-23590.81;;;18.76
74321;BMP280;62738;45.772;4.804;2022-09-09T03:00:22;-23584.97;;;18.64
74321;BMP280;62738;45.772;4.804;2022-09-09T03:03:11;-23583.78;;;18.61
74321;BMP280;62738;45.772;4.804;2022-09-09T03:05:58;-23584.50;;;18.63
74321;BMP280;62738;45.772;4.804;2022-09-09T03:08:45;-23586.19;;;18.66
74321;BMP280;62738;45.772;4.804;2022-09-09T03:11:35;-23587.16;;;18.68
74321;BMP280;62738;45.772;4.804;2022-09-09T03:14:23;-23578.69;;;18.51
74321;BMP280;62738;45.772;4.804;2022-09-09T03:17:11;-23586.44;;;18.67
74321;BMP280;62738;45.772;4.804;2022-09-09T03:19:59;-23594.44;;;18.83
74321;BMP280;62738;45.772;4.804;2022-09-09T03:22:45;-23597.34;;;18.89
74321;BMP280;62738;45.772;4.804;2022-09-09T03:25:33;-23599.31;;;18.93
74321;BMP280;62738;45.772;4.804;2022-09-09T03:28:20;-23597.34;;;18.89
74321;BMP280;62738;45.772;4.804;2022-09-09T03:31:08;-23596.63;;;18.88
74321;BMP280;62738;45.772;4.804;2022-09-09T03:33:57;-23585.22;;;18.64
74321;BMP280;62738;45.772;4.804;2022-09-09T03:36:44;-23580.13;;;18.54
74321;BMP280;62738;45.772;4.804;2022-09-09T03:39:32;-23577.22;;;18.48
74321;BMP280;62738;45.772;4.804;2022-09-09T03:42:19;-23569.94;;;18.33
74321;BMP280;62738;45.772;4.804;2022-09-09T03:45:08;-23570.94;;;18.35
74321;BMP280;62738;45.772;4.804;2022-09-09T03:47:56;-23568.75;;;18.31
74321;BMP280;62738;45.772;4.804;2022-09-09T03:50:47;-23563.16;;;18.19
74321;BMP280;62738;45.772;4.804;2022-09-09T03:53:34;-23567.75;;;18.29
74321;BMP280;62738;45.772;4.804;2022-09-09T03:56:22;-23579.41;;;18.53
74321;BMP280;62738;45.772;4.804;2022-09-09T03:59:09;-23573.59;;;18.41
74321;BMP280;62738;45.772;4.804;2022-09-09T04:01:56;-23568.75;;;18.31
74321;BMP280;62738;45.772;4.804;2022-09-09T04:04:46;-23567.53;;;18.28
74321;BMP280;62738;45.772;4.804;2022-09-09T04:07:32;-23572.13;;;18.38
74321;BMP280;62738;45.772;4.804;2022-09-09T04:10:19;-23579.91;;;18.54
74321;BMP280;62738;45.772;4.804;2022-09-09T04:13:07;-23580.88;;;18.56
74321;BMP280;62738;45.772;4.804;2022-09-09T04:15:56;-23576.00;;;18.46
74321;BMP280;62738;45.772;4.804;2022-09-09T04:18:43;-23565.84;;;18.25
74321;BMP280;62738;45.772;4.804;2022-09-09T04:21:30;-23560.25;;;18.13
74321;BMP280;62738;45.772;4.804;2022-09-09T04:24:17;-23556.63;;;18.06
74321;BMP280;62738;45.772;4.804;2022-09-09T04:27:05;-23559.03;;;18.11
74321;BMP280;62738;45.772;4.804;2022-09-09T04:29:52;-23552.25;;;17.97
74321;BMP280;62738;45.772;4.804;2022-09-09T04:32:39;-23548.38;;;17.89
74321;BMP280;62738;45.772;4.804;2022-09-09T04:35:26;-23544.00;;;17.80
74321;BMP280;62738;45.772;4.804;2022-09-09T04:38:14;-23543.03;;;17.78
74321;BMP280;62738;45.772;4.804;2022-09-09T04:41:01;-23555.88;;;18.04
74321;BMP280;62738;45.772;4.804;2022-09-09T04:43:49;-23560.50;;;18.14
74321;BMP280;62738;45.772;4.804;2022-09-09T04:46:36;-23546.91;;;17.86
74321;BMP280;62738;45.772;4.804;2022-09-09T04:49:23;-23551.50;;;17.95
74321;BMP280;62738;45.772;4.804;2022-09-09T04:52:10;-23547.41;;;17.87
74321;BMP280;62738;45.772;4.804;2022-09-09T04:54:57;-23550.31;;;17.93
74321;BMP280;62738;45.772;4.804;2022-09-09T04:57:44;-23552.25;;;17.97
74321;BMP280;62738;45.772;4.804;2022-09-09T05:00:31;-23548.84;;;17.90
74321;BMP280;62738;45.772;4.804;2022-09-09T05:03:18;-23548.59;;;17.89
74321;BMP280;62738;45.772;4.804;2022-09-09T05:06:07;-23539.66;;;17.71
74321;BMP280;62738;45.772;4.804;2022-09-09T05:08:55;-23546.44;;;17.85
74321;BMP280;62738;45.772;4.804;2022-09-09T05:11:43;-23537.94;;;17.67
74321;BMP280;62738;45.772;4.804;2022-09-09T05:14:30;-23532.59;;;17.57
74321;BMP280;62738;45.772;4.804;2022-09-09T05:17:17;-23540.13;;;17.72
74321;BMP280;62738;45.772;4.804;2022-09-09T05:20:05;-23536.47;;;17.64
74321;BMP280;62738;45.772;4.804;2022-09-09T05:22:56;-23530.66;;;17.52
74321;BMP280;62738;45.772;4.804;2022-09-09T05:25:43;-23542.06;;;17.76
74321;BMP280;62738;45.772;4.804;2022-09-09T05:28:31;-23547.63;;;17.87
74321;BMP280;62738;45.772;4.804;2022-09-09T05:31:18;-23551.28;;;17.95
74321;BMP280;62738;45.772;4.804;2022-09-09T05:34:05;-23550.56;;;17.93
74321;BMP280;62738;45.772;4.804;2022-09-09T05:36:52;-23547.16;;;17.86
74321;BMP280;62738;45.772;4.804;2022-09-09T05:39:40;-23541.34;;;17.74
74321;BMP280;62738;45.772;4.804;2022-09-09T05:42:30;-23548.84;;;17.90
74321;BMP280;62738;45.772;4.804;2022-09-09T05:45:19;-23550.81;;;17.94
74321;BMP280;62738;45.772;4.804;2022-09-09T05:48:06;-23555.63;;;18.04
74321;BMP280;62738;45.772;4.804;2022-09-09T05:50:54;-23557.09;;;18.07
74321;BMP280;62738;45.772;4.804;2022-09-09T05:53:42;-23554.44;;;18.01
74321;BMP280;62738;45.772;4.804;2022-09-09T05:56:29;-23555.41;;;18.03
74321;BMP280;62738;45.772;4.804;2022-09-09T05:59:16;-23562.91;;;18.19
74321;BMP280;62738;45.772;4.804;2022-09-09T06:02:05;-23568.75;;;18.31
74321;BMP280;62738;45.772;4.804;2022-09-09T06:04:52;-23563.41;;;18.20
74321;BMP280;62738;45.772;4.804;2022-09-09T06:07:44;-23569.22;;;18.32
74321;BMP280;62738;45.772;4.804;2022-09-09T06:10:31;-23573.09;;;18.40
74321;BMP280;62738;45.772;4.804;2022-09-09T06:13:18;-23573.09;;;18.40
74321;BMP280;62738;45.772;4.804;2022-09-09T06:16:09;-23576.25;;;18.46
74321;BMP280;62738;45.772;4.804;2022-09-09T06:18:58;-23587.66;;;18.69
74321;BMP280;62738;45.772;4.804;2022-09-09T06:21:46;-23587.16;;;18.68
74321;BMP280;62738;45.772;4.804;2022-09-09T06:24:34;-23593.47;;;18.81
74321;BMP280;62738;45.772;4.804;2022-09-09T06:27:21;-23575.53;;;18.45
74321;BMP280;62738;45.772;4.804;2022-09-09T06:30:08;-23589.34;;;18.73
74321;BMP280;62738;45.772;4.804;2022-09-09T06:32:56;-23595.41;;;18.85
74321;BMP280;62738;45.772;4.804;2022-09-09T06:35:51;-23609.00;;;19.13
74321;BMP280;62738;45.772;4.804;2022-09-09T06:38:39;-23604.63;;;19.04
74321;BMP280;62738;45.772;4.804;2022-09-09T06:41:28;-23610.44;;;19.16
74321;BMP280;62738;45.772;4.804;2022-09-09T06:44:15;-23616.28;;;19.28
74321;BMP280;62738;45.772;4.804;2022-09-09T06:47:03;-23615.31;;;19.26
74321;BMP280;62738;45.772;4.804;2022-09-09T06:49:50;-23625.50;;;19.47
74321;BMP280;62738;45.772;4.804;2022-09-09T06:52:37;-23625.25;;;19.47
74321;BMP280;62738;45.772;4.804;2022-09-09T06:55:24;-23625.50;;;19.47
74321;BMP280;62738;45.772;4.804;2022-09-09T06:58:11;-23634.72;;;19.66
74321;BMP280;62738;45.772;4.804;2022-09-09T07:01:06;-23638.09;;;19.73
74321;BMP280;62738;45.772;4.804;2022-09-09T07:03:55;-23640.78;;;19.78
74321;BMP280;62738;45.772;4.804;2022-09-09T07:06:45;-23645.88;;;19.89
74321;BMP280;62738;45.772;4.804;2022-09-09T07:09:32;-23662.34;;;20.23
74321;BMP280;62738;45.772;4.804;2022-09-09T07:12:19;-23660.44;;;20.19
74321;BMP280;62738;45.772;4.804;2022-09-09T07:15:07;-23661.88;;;20.22
74321;BMP280;62738;45.772;4.804;2022-09-09T07:17:54;-23664.06;;;20.26
74321;BMP280;62738;45.772;4.804;2022-09-09T07:20:41;-23662.13;;;20.22
74321;BMP280;62738;45.772;4.804;2022-09-09T07:23:29;-23660.19;;;20.18
74321;BMP280;62738;45.772;4.804;2022-09-09T07:26:25;-23673.53;;;20.45
74321;BMP280;62738;45.772;4.804;2022-09-09T07:29:12;-23666.25;;;20.31
74321;BMP280;62738;45.772;4.804;2022-09-09T07:32:06;-23674.50;;;20.47
74321;BMP280;62738;45.772;4.804;2022-09-09T07:34:53;-23680.81;;;20.60
74321;BMP280;62738;45.772;4.804;2022-09-09T07:37:40;-23684.69;;;20.68
74321;BMP280;62738;45.772;4.804;2022-09-09T07:40:27;-23692.44;;;20.84
74321;BMP280;62738;45.772;4.804;2022-09-09T07:43:15;-23681.78;;;20.62
74321;BMP280;62738;45.772;4.804;2022-09-09T07:46:06;-23692.94;;;20.85
74321;BMP280;62738;45.772;4.804;2022-09-09T07:48:55;-23695.84;;;20.91
74321;BMP280;62738;45.772;4.804;2022-09-09T07:51:45;-23696.81;;;20.93
74321;BMP280;62738;45.772;4.804;2022-09-09T07:54:32;-23703.38;;;21.07
74321;BMP280;62738;45.772;4.804;2022-09-09T07:57:19;-23706.03;;;21.12
74321;BMP280;62738;45.772;4.804;2022-09-09T08:00:06;-23705.56;;;21.11
74321;BMP280;62738;45.772;4.804;2022-09-09T08:02:54;-23699.72;;;20.99
74321;BMP280;62738;45.772;4.804;2022-09-09T08:05:42;-23708.22;;;21.17
74321;BMP280;62738;45.772;4.804;2022-09-09T08:08:30;-23716.72;;;21.34
74321;BMP280;62738;45.772;4.804;2022-09-09T08:11:17;-23725.94;;;21.53
74321;BMP280;62738;45.772;4.804;2022-09-09T08:14:04;-23730.31;;;21.62
74321;BMP280;62738;45.772;4.804;2022-09-09T08:16:51;-23738.78;;;21.79
74321;BMP280;62738;45.772;4.804;2022-09-09T08:19:40;-23736.63;;;21.75
74321;BMP280;62738;45.772;4.804;2022-09-09T08:22:27;-23736.88;;;21.75
74321;BMP280;62738;45.772;4.804;2022-09-09T08:25:14;-23739.28;;;21.80
74321;BMP280;62738;45.772;4.804;2022-09-09T08:28:02;-23737.09;;;21.76
74321;BMP280;62738;45.772;4.804;2022-09-09T08:30:50;-23745.84;;;21.94
74321;BMP280;62738;45.772;4.804;2022-09-09T08:33:41;-23735.66;;;21.73
74321;BMP280;62738;45.772;4.804;2022-09-09T08:36:30;-23735.16;;;21.72
74321;BMP280;62738;45.772;4.804;2022-09-09T08:39:18;-23733.44;;;21.68
74321;BMP280;62738;45.772;4.804;2022-09-09T08:45:31;-23744.38;;;21.91
74321;BMP280;62738;45.772;4.804;2022-09-09T08:51:56;-23748.50;;;21.99
74321;BMP280;62738;45.772;4.804;2022-09-09T08:54:44;-23739.78;;;21.81
74321;BMP280;62738;45.772;4.804;2022-09-09T08:57:38;-23747.53;;;21.97
74321;BMP280;62738;45.772;4.804;2022-09-09T09:00:53;-23754.56;;;22.12
74321;BMP280;62738;45.772;4.804;2022-09-09T09:03:58;-23756.03;;;22.14
74321;BMP280;62738;45.772;4.804;2022-09-09T09:06:57;-23756.03;;;22.14
74321;BMP280;62738;45.772;4.804;2022-09-09T09:13:44;-23755.06;;;22.13
74321;BMP280;62738;45.772;4.804;2022-09-09T09:16:34;-23764.28;;;22.31
74321;BMP280;62738;45.772;4.804;2022-09-09T09:19:26;-23768.16;;;22.39
74321;BMP280;62738;45.772;4.804;2022-09-09T09:22:22;-23786.59;;;22.77
74321;BMP280;62738;45.772;4.804;2022-09-09T09:25:19;-23794.88;;;22.94
74321;BMP280;62738;45.772;4.804;2022-09-09T09:28:23;-23796.31;;;22.97
74321;BMP280;62738;45.772;4.804;2022-09-09T09:31:12;-23789.75;;;22.84
74321;BMP280;62738;45.772;4.804;2022-09-09T09:34:00;-23792.19;;;22.89
74321;BMP280;62738;45.772;4.804;2022-09-09T09:36:56;-23787.09;;;22.78
74321;BMP280;62738;45.772;4.804;2022-09-09T09:39:44;-23782.97;;;22.70
74321;BMP280;62738;45.772;4.804;2022-09-09T09:42:56;-23783.19;;;22.70
74321;BMP280;62738;45.772;4.804;2022-09-09T09:45:44;-23789.28;;;22.83
74321;BMP280;62738;45.772;4.804;2022-09-09T09:48:57;-23783.94;;;22.72
74321;BMP280;62738;45.772;4.804;2022-09-09T09:51:44;-23786.38;;;22.77
74321;BMP280;62738;45.772;4.804;2022-09-09T09:54:34;-23790.97;;;22.86
74321;BMP280;62738;45.772;4.804;2022-09-09T09:57:26;-23793.16;;;22.91
74321;BMP280;62738;45.772;4.804;2022-09-09T10:00:18;-23790.00;;;22.84
74321;BMP280;62738;45.772;4.804;2022-09-09T10:03:41;-23793.63;;;22.92
74321;BMP280;62738;45.772;4.804;2022-09-09T10:06:35;-23796.31;;;22.97
74321;BMP280;62738;45.772;4.804;2022-09-09T10:09:27;-23797.03;;;22.98
74321;BMP280;62738;45.772;4.804;2022-09-09T10:15:42;-23804.31;;;23.13
74321;BMP280;62738;45.772;4.804;2022-09-09T10:22:08;-23807.72;;;23.20
74321;BMP280;62738;45.772;4.804;2022-09-09T10:28:33;-23808.94;;;23.23
74321;BMP280;62738;45.772;4.804;2022-09-09T10:35:09;-23795.59;;;22.96
74321;BMP280;62738;45.772;4.804;2022-09-09T10:38:34;-23793.63;;;22.92
74321;BMP280;62738;45.772;4.804;2022-09-09T10:42:01;-23812.59;;;23.30
74321;BMP280;62738;45.772;4.804;2022-09-09T10:54:29;-23817.91;;;23.41
74321;BMP280;62738;45.772;4.804;2022-09-09T10:57:33;-23801.16;;;23.07
74321;BMP280;62738;45.772;4.804;2022-09-09T11:00:31;-23798.97;;;23.02
74321;BMP280;62738;45.772;4.804;2022-09-09T11:03:28;-23808.94;;;23.23
74321;BMP280;62738;45.772;4.804;2022-09-09T11:06:19;-23815.25;;;23.36
74321;BMP280;62738;45.772;4.804;2022-09-09T11:09:14;-23814.75;;;23.35
74321;BMP280;62738;45.772;4.804;2022-09-09T11:12:05;-23832.25;;;23.71
74321;BMP280;62738;45.772;4.804;2022-09-09T11:15:17;-23833.69;;;23.74
74321;BMP280;62738;45.772;4.804;2022-09-09T11:18:11;-23845.84;;;23.98
74321;BMP280;62738;45.772;4.804;2022-09-09T11:21:02;-23866.97;;;24.42
74321;BMP280;62738;45.772;4.804;2022-09-09T11:23:55;-23862.84;;;24.33
74321;BMP280;62738;45.772;4.804;2022-09-09T11:26:49;-23856.28;;;24.20
74321;BMP280;62738;45.772;4.804;2022-09-09T11:39:33;-23889.28;;;24.87
74321;BMP280;62738;45.772;4.804;2022-09-09T11:42:24;-23902.41;;;25.14
74321;BMP280;62738;45.772;4.804;2022-09-09T11:45:20;-23902.88;;;25.15
74321;BMP280;62738;45.772;4.804;2022-09-09T11:48:37;-23889.28;;;24.87
74321;BMP280;62738;45.772;4.804;2022-09-09T11:51:29;-23893.66;;;24.96
74321;BMP280;62738;45.772;4.804;2022-09-09T11:54:46;-23903.63;;;25.17
74321;BMP280;62738;45.772;4.804;2022-09-09T11:57:36;-23897.31;;;25.04
74321;BMP280;62738;45.772;4.804;2022-09-09T12:03:45;-23912.84;;;25.35
74321;BMP280;62738;45.772;4.804;2022-09-09T12:06:43;-23913.81;;;25.37
74321;BMP280;62738;45.772;4.804;2022-09-09T12:12:28;-23892.69;;;24.94
74321;BMP280;62738;45.772;4.804;2022-09-09T12:15:19;-23878.38;;;24.65
74321;BMP280;62738;45.772;4.804;2022-09-09T12:18:14;-23883.94;;;24.76
74321;BMP280;62738;45.772;4.804;2022-09-09T12:21:30;-23875.94;;;24.60
74321;BMP280;62738;45.772;4.804;2022-09-09T12:24:54;-23882.50;;;24.73
74321;BMP280;62738;45.772;4.804;2022-09-09T12:27:50;-23892.69;;;24.94
74321;BMP280;62738;45.772;4.804;2022-09-09T12:30:58;-23877.16;;;24.62
74321;BMP280;62738;45.772;4.804;2022-09-09T12:33:47;-23871.09;;;24.50
74321;BMP280;62738;45.772;4.804;2022-09-09T12:36:39;-23883.22;;;24.75
74321;BMP280;62738;45.772;4.804;2022-09-09T12:42:19;-23903.13;;;25.16
74321;BMP280;62738;45.772;4.804;2022-09-09T12:45:23;-23911.63;;;25.33
74321;BMP280;62738;45.772;4.804;2022-09-09T12:48:12;-23917.69;;;25.45
74321;BMP280;62738;45.772;4.804;2022-09-09T12:51:03;-23923.53;;;25.57
74321;BMP280;62738;45.772;4.804;2022-09-09T12:53:54;-23930.31;;;25.71
74321;BMP280;62738;45.772;4.804;2022-09-09T12:56:45;-23930.09;;;25.71
74321;BMP280;62738;45.772;4.804;2022-09-09T12:59:39;-23938.81;;;25.89
74321;BMP280;62738;45.772;4.804;2022-09-09T13:02:26;-23922.56;;;25.55
74321;BMP280;62738;45.772;4.804;2022-09-09T13:05:17;-23924.97;;;25.60
74321;BMP280;62738;45.772;4.804;2022-09-09T13:08:07;-23926.19;;;25.63
74321;BMP280;62738;45.772;4.804;2022-09-09T13:10:59;-23925.47;;;25.61
74321;BMP280;62738;45.772;4.804;2022-09-09T13:13:54;-23912.38;;;25.34
74321;BMP280;62738;45.772;4.804;2022-09-09T13:16:42;-23910.91;;;25.31
74321;BMP280;62738;45.772;4.804;2022-09-09T13:19:35;-23903.13;;;25.16
74321;BMP280;62738;45.772;4.804;2022-09-09T13:22:36;-23911.38;;;25.32
74321;BMP280;62738;45.772;4.804;2022-09-09T13:25:28;-23915.75;;;25.41
74321;BMP280;62738;45.772;4.804;2022-09-09T13:28:21;-23913.31;;;25.36
74321;BMP280;62738;45.772;4.804;2022-09-09T13:31:27;-23918.69;;;25.47
74321;BMP280;62738;45.772;4.804;2022-09-09T13:34:34;-23918.69;;;25.47
74321;BMP280;62738;45.772;4.804;2022-09-09T13:37:34;-23921.59;;;25.53
74321;BMP280;62738;45.772;4.804;2022-09-09T13:40:22;-23915.28;;;25.40
74321;BMP280;62738;45.772;4.804;2022-09-09T13:43:18;-23913.81;;;25.37
74321;BMP280;62738;45.772;4.804;2022-09-09T13:54:54;-23928.16;;;25.67
74321;BMP280;62738;45.772;4.804;2022-09-09T13:57:55;-23925.22;;;25.61
74321;BMP280;62738;45.772;4.804;2022-09-09T14:00:42;-23920.13;;;25.50
74321;BMP280;62738;45.772;4.804;2022-09-09T14:03:31;-23919.88;;;25.50
74321;BMP280;62738;45.772;4.804;2022-09-09T14:06:18;-23917.22;;;25.44
74321;BMP280;62738;45.772;4.804;2022-09-09T14:09:07;-23911.16;;;25.32
74321;BMP280;62738;45.772;4.804;2022-09-09T14:11:54;-23906.06;;;25.22
74321;BMP280;62738;45.772;4.804;2022-09-09T14:14:44;-23906.06;;;25.22
74321;BMP280;62738;45.772;4.804;2022-09-09T14:17:31;-23910.91;;;25.31
74321;BMP280;62738;45.772;4.804;2022-09-09T14:20:18;-23923.53;;;25.57
74321;BMP280;62738;45.772;4.804;2022-09-09T14:23:07;-23931.31;;;25.73
74321;BMP280;62738;45.772;4.804;2022-09-09T14:25:56;-23934.47;;;25.80
74321;BMP280;62738;45.772;4.804;2022-09-09T14:28:43;-23927.41;;;25.65
74321;BMP280;62738;45.772;4.804;2022-09-09T14:31:41;-23925.94;;;25.62
74321;BMP280;62738;45.772;4.804;2022-09-09T14:34:28;-23913.09;;;25.36
74321;BMP280;62738;45.772;4.804;2022-09-09T14:37:16;-23912.59;;;25.35
74321;BMP280;62738;45.772;4.804;2022-09-09T14:40:03;-23915.50;;;25.41
74321;BMP280;62738;45.772;4.804;2022-09-09T14:42:52;-23916.00;;;25.42
74321;BMP280;62738;45.772;4.804;2022-09-09T14:45:39;-23915.75;;;25.41
74321;BMP280;62738;45.772;4.804;2022-09-09T14:48:26;-23905.81;;;25.21
74321;BMP280;62738;45.772;4.804;2022-09-09T14:51:31;-23897.31;;;25.04
74321;BMP280;62738;45.772;4.804;2022-09-09T14:54:18;-23896.56;;;25.02
74321;BMP280;62738;45.772;4.804;2022-09-09T14:57:05;-23902.16;;;25.14
74321;BMP280;62738;45.772;4.804;2022-09-09T14:59:52;-23897.78;;;25.05
74321;BMP280;62738;45.772;4.804;2022-09-09T15:02:40;-23897.78;;;25.05
74321;BMP280;62738;45.772;4.804;2022-09-09T15:05:27;-23904.09;;;25.18
74321;BMP280;62738;45.772;4.804;2022-09-09T15:08:15;-23911.16;;;25.32
74321;BMP280;62738;45.772;4.804;2022-09-09T15:11:04;-23905.06;;;25.20
74321;BMP280;62738;45.772;4.804;2022-09-09T15:13:52;-23901.19;;;25.12
74321;BMP280;62738;45.772;4.804;2022-09-09T15:16:40;-23905.06;;;25.20
74321;BMP280;62738;45.772;4.804;2022-09-09T15:19:28;-23892.44;;;24.94
74321;BMP280;62738;45.772;4.804;2022-09-09T15:22:15;-23886.38;;;24.81
74321;BMP280;62738;45.772;4.804;2022-09-09T15:25:02;-23898.28;;;25.06
74321;BMP280;62738;45.772;4.804;2022-09-09T15:27:49;-23904.09;;;25.18
74321;BMP280;62738;45.772;4.804;2022-09-09T15:30:36;-23913.81;;;25.37
74321;BMP280;62738;45.772;4.804;2022-09-09T15:33:23;-23919.16;;;25.48
74321;BMP280;62738;45.772;4.804;2022-09-09T15:36:18;-23934.69;;;25.80
74321;BMP280;62738;45.772;4.804;2022-09-09T15:39:12;-23934.22;;;25.79
74321;BMP280;62738;45.772;4.804;2022-09-09T15:42:02;-23936.16;;;25.83
74321;BMP280;62738;45.772;4.804;2022-09-09T15:44:49;-23937.13;;;25.85
74321;BMP280;62738;45.772;4.804;2022-09-09T15:47:36;-23950.25;;;26.12
74321;BMP280;62738;45.772;4.804;2022-09-09T15:50:23;-23955.34;;;26.22
74321;BMP280;62738;45.772;4.804;2022-09-09T15:53:10;-23958.25;;;26.28
74321;BMP280;62738;45.772;4.804;2022-09-09T15:55:58;-23950.97;;;26.13
74321;BMP280;62738;45.772;4.804;2022-09-09T15:58:45;-23936.16;;;25.83
74321;BMP280;62738;45.772;4.804;2022-09-09T16:01:33;-23920.63;;;25.51
74321;BMP280;62738;45.772;4.804;2022-09-09T16:04:22;-23920.63;;;25.51
74321;BMP280;62738;45.772;4.804;2022-09-09T16:07:10;-23915.28;;;25.40
74321;BMP280;62738;45.772;4.804;2022-09-09T16:09:57;-23921.09;;;25.52
74321;BMP280;62738;45.772;4.804;2022-09-09T16:12:44;-23924.00;;;25.58
74321;BMP280;62738;45.772;4.804;2022-09-09T16:15:31;-23924.97;;;25.60
74321;BMP280;62738;45.772;4.804;2022-09-09T16:18:18;-23924.75;;;25.60
74321;BMP280;62738;45.772;4.804;2022-09-09T16:21:08;-23935.19;;;25.81
74321;BMP280;62738;45.772;4.804;2022-09-09T16:23:59;-23954.38;;;26.20
74321;BMP280;62738;45.772;4.804;2022-09-09T16:26:48;-23964.81;;;26.42
74321;BMP280;62738;45.772;4.804;2022-09-09T16:29:35;-23988.38;;;26.90
74321;BMP280;62738;45.772;4.804;2022-09-09T16:32:22;-23975.72;;;26.64
74321;BMP280;62738;45.772;4.804;2022-09-09T16:35:09;-23972.09;;;26.57
74321;BMP280;62738;45.772;4.804;2022-09-09T16:37:56;-23961.88;;;26.36
74321;BMP280;62738;45.772;4.804;2022-09-09T16:40:43;-23940.78;;;25.93
74321;BMP280;62738;45.772;4.804;2022-09-09T16:43:32;-23939.56;;;25.90
74321;BMP280;62738;45.772;4.804;2022-09-09T16:46:20;-23934.47;;;25.80
74321;BMP280;62738;45.772;4.804;2022-09-09T16:49:13;-23917.22;;;25.44
74321;BMP280;62738;45.772;4.804;2022-09-09T16:52:01;-23919.16;;;25.48
74321;BMP280;62738;45.772;4.804;2022-09-09T16:54:48;-23919.63;;;25.49
74321;BMP280;62738;45.772;4.804;2022-09-09T16:57:36;-23915.50;;;25.41
74321;BMP280;62738;45.772;4.804;2022-09-09T17:00:23;-23903.13;;;25.16
74321;BMP280;62738;45.772;4.804;2022-09-09T17:03:13;-23889.78;;;24.88
74321;BMP280;62738;45.772;4.804;2022-09-09T17:06:00;-23892.22;;;24.93
74321;BMP280;62738;45.772;4.804;2022-09-09T17:08:54;-23893.66;;;24.96
74321;BMP280;62738;45.772;4.804;2022-09-09T17:11:41;-23887.09;;;24.83
74321;BMP280;62738;45.772;4.804;2022-09-09T17:14:28;-23883.69;;;24.76
74321;BMP280;62738;45.772;4.804;2022-09-09T17:17:17;-23885.66;;;24.80
74321;BMP280;62738;45.772;4.804;2022-09-09T17:20:17;-23878.63;;;24.65
74321;BMP280;62738;45.772;4.804;2022-09-09T17:23:04;-23872.28;;;24.52
74321;BMP280;62738;45.772;4.804;2022-09-09T17:25:58;-23868.91;;;24.46
74321;BMP280;62738;45.772;4.804;2022-09-09T17:28:47;-23867.19;;;24.42
74321;BMP280;62738;45.772;4.804;2022-09-09T17:31:34;-23865.25;;;24.38
74321;BMP280;62738;45.772;4.804;2022-09-09T17:34:21;-23865.75;;;24.39
74321;BMP280;62738;45.772;4.804;2022-09-09T17:37:08;-23865.97;;;24.40
74321;BMP280;62738;45.772;4.804;2022-09-09T17:39:55;-23863.06;;;24.34
74321;BMP280;62738;45.772;4.804;2022-09-09T17:42:42;-23859.44;;;24.26